Sacramento, CA (94208)

3:39 PM PDT on September 23, 2014 (GMT -0700)
MIDTOWN | Change Station
CLOSE
Current Station
Personal Weather Station
Location: SACRAMENTO, CA
Elevation: 24 ft
Nearby Weather Stations

Elev 24 ft 38.57 °N, 121.48 °W | Updated 21 seconds ago

Clear
Clear
90.0 °F
Feels Like 88 °F
N
6.5
Wind Variable Wind from SW
Gusts 7.4 mph

Today
High -- | Low -- °F
--% Chance of Precip.
Yesterday
High -- | Low -- °F
Precip. -- in
6:54 AM 7:01 PM
Waning Crescent, 0% visible
Pressure 29.91 in
Visibility 10.0 miles
Clouds Clear
Heat Index 88 °F
Dew Point 56 °F
Humidity 32%
Rainfall 0.00 in
Snow Depth 0 in , 0 in , 0 in
UV 1.0 out of 12
Pollen 5.30 out of 12
Ozone Good
PM2.5 Good
Flu Activity Not available.
METAR KSAC 232153Z 24006KT 10SM CLR 31/12 A2990 RMK AO2 SLP126 T03110117

More Conditions Fewer Conditions

Pressure 29.91 in
Visibility 10.0 miles
Clouds Clear
Heat Index 88 °F
Dew Point 56 °F
Humidity 32%
Rainfall 0.00 in
Snow Depth 0 in , 0 in , 0 in
UV 1.0 out of 12
Pollen 5.30 out of 12
Ozone Good
PM2.5 Good
Flu Activity Not available.
METAR KSAC 232153Z 24006KT 10SM CLR 31/12 A2990 RMK AO2 SLP126 T03110117

More Conditions Fewer Conditions

10-Day Weather Forecast

Almanac

Astronomy

Sep. 23, 2014 Rise Set
Actual Time 6:54 AM PDT 7:01 PM PDT
Civil Twilight 6:28 AM PDT 7:27 PM PDT
Nautical Twilight 5:57 AM PDT 7:58 PM PDT
Astronomical Twilight 5:25 AM PDT 8:29 PM PDT
Moon 6:23 AM PDT 6:43 PM PDT
Length of Visible Light 12h 59m
Length of Day
12h 06m
Tomorrow will be 2m 29s shorter.
Waning Crescent, 0% of the Moon is Illuminated
Today
Waning Crescent
Sep 24
New
Oct 1
First Quarter
Oct 8
Full
Oct 15
Last Quarter

Today's Extremes

State Highs State Lows

Community

WunderPhotos

Upload Photos

1,755,810 photos uploaded!

WunderBlogs® & News

Nearby

Air Quality

  Air Quality AQ Index Pollutant
Yesterday Good
PM10
Yesterday Good
OZONE
Current Good
OZONE
Current Good
PM2.5
Tuesday Moderate
OZONE
Wednesday Good
OZONE
Thursday Good
OZONE
Friday Good
OZONE
Saturday Good
OZONE
Sunday Good
OZONE

Snow Depth

Station Depth Elevation
Summit Meadow 0 in 9122 ft
Leavitt Meadows 0 in 7200 ft
CSS Lab 0 in 6900 ft
Adin Mountain 0 in 6200 ft

Earthquake Activity

City Distance Mag. Time & Date
Yountville, California 50 miles 2.6 1:17 PM PDT
2014-09-21
Minimum magnitude displayed is 2.5.

Coastal Water Temperatures

Place Temperature
No Stations Reporting

Nearby Weather Stations